First Ferry Vi — VRS4293 — position and weather

sailwx.info

Track history (hours):
 
Tides and Currents Weather Stations Pressure Air Temp Water Temp Dewpoint Dewpoint Depression Visibility Wind Speed Wind Dir Waves Ship Positions

First Ferry Vi

Last reported at 2015-May-30 03:34 UTC. Time now 2015-May-30 04:34 UTC.
Position N 22°17' E 114°10'.

Length 36 m; draft 1.8 m.

Type: Ship. MMSI: 477995028.

Date/timePositionNaut miles runAvg speedWind from/ knotsBaromVisibWave heightAir tempDewpointWater temp
2015-May-30 03:34N 22°17' E 114°10'6 4.4
2015-May-30 02:08N 22°15' E 114°04'610.1
2015-May-30 01:33N 22°17' E 114°10'2 2.5
2015-May-30 00:33N 22°19' E 114°09'7 6.0
2015-May-29 23:22N 22°15' E 114°03'2 3.1
2015-May-29 22:33N 22°17' E 114°05'5 0.7
2015-May-29 15:33N 22°17' E 114°10'7 6.4
2015-May-29 14:24N 22°16' E 114°02'910.9
2015-May-29 13:34N 22°18' E 114°12'2 1.9
2015-May-29 12:34N 22°17' E 114°10'4 4.2
2015-May-29 11:32N 22°16' E 114°05'1 0.7
2015-May-29 10:19N 22°17' E 114°04'7 9.4
2015-May-29 09:34N 22°19' E 114°12'0 0.4
2015-May-29 08:34N 22°19' E 114°12'0 0.0
2015-May-29 07:34N 22°19' E 114°12'0 0.0
2015-May-29 06:34N 22°19' E 114°12'2 1.5
2015-May-29 05:33N 22°18' E 114°11'7 5.1
2015-May-29 04:06N 22°15' E 114°04'610.1
2015-May-29 03:31N 22°17' E 114°10'4 2.8
2015-May-29 02:03N 22°16' E 114°05'5 9.2
2015-May-29 01:33N 22°17' E 114°10'2 1.6
2015-May-29 00:33N 22°19' E 114°09'7 5.9
2015-May-28 23:22N 22°15' E 114°03'2 2.3
2015-May-28 22:26N 22°16' E 114°01'8 1.2
2015-May-28 15:34N 22°17' E 114°10'7 6.6
2015-May-28 14:25N 22°16' E 114°02'7 8.6
2015-May-28 13:33N 22°17' E 114°10'0 0.1
2015-May-28 12:33N 22°17' E 114°10'4 3.9
2015-May-28 11:32N 22°16' E 114°05'3 2.5
2015-May-28 10:24N 22°16' E 114°02'810.0
2015-May-28 09:33N 22°18' E 114°11'1 1.2
2015-May-28 08:34N 22°19' E 114°12'0 0.0
2015-May-28 07:34N 22°19' E 114°12'0 0.0
2015-May-28 06:34N 22°19' E 114°12'2 1.5
2015-May-28 05:33N 22°18' E 114°11'1 0.7
2015-May-28 03:22N 22°17' E 114°10'4 2.9
2015-May-28 02:03N 22°17' E 114°06'4 8.2
2015-May-28 01:33N 22°17' E 114°10'2 2.2
2015-May-28 00:33N 22°19' E 114°09'6 5.2
2015-May-27 23:20N 22°15' E 114°04'2 2.0
2015-May-27 22:33N 22°17' E 114°04'3 0.5
2015-May-27 16:05N 22°16' E 114°01'815.7
2015-May-27 15:33N 22°17' E 114°10'7 6.2
2015-May-27 14:23N 22°16' E 114°02'910.8
2015-May-27 13:33N 22°18' E 114°11'2 1.6
2015-May-27 12:34N 22°17' E 114°10'4 4.0
2015-May-27 11:32N 22°16' E 114°05'1 0.6
2015-May-27 10:16N 22°17' E 114°06'4 5.3
2015-May-27 09:33N 22°19' E 114°09'0 0.3
2015-May-27 08:34N 22°20' E 114°09'0 0.0
2015-May-27 07:34N 22°20' E 114°09'0 0.0
2015-May-27 06:32N 22°20' E 114°09'2 2.2
2015-May-27 05:33N 22°18' E 114°09'0 0.2
2015-May-27 03:20N 22°17' E 114°10'5 4.3
2015-May-27 02:06N 22°16' E 114°04'610.7
2015-May-27 01:33N 22°17' E 114°10'2 1.7
2015-May-27 00:33N 22°19' E 114°09'5 4.4
2015-May-26 23:19N 22°16' E 114°04'1 1.4
2015-May-26 22:33N 22°17' E 114°04'5 0.7
2015-May-26 15:33N 22°17' E 114°10'8 6.6
2015-May-26 14:25N 22°16' E 114°02'7 8.8
2015-May-26 13:33N 22°17' E 114°10'0 0.0
2015-May-26 12:33N 22°17' E 114°10'5 4.7
2015-May-26 11:33N 22°16' E 114°05'2 1.5
2015-May-26 10:22N 22°16' E 114°03'6 7.8
2015-May-26 09:33N 22°19' E 114°09'1 1.2
2015-May-26 08:33N 22°20' E 114°09'0 0.0
2015-May-26 07:32N 22°20' E 114°09'0 0.0
2015-May-26 06:13N 22°20' E 114°09'2 2.4
2015-May-26 05:34N 22°18' E 114°09'5 3.4
2015-May-26 04:05N 22°16' E 114°04'5 9.0
2015-May-26 03:32N 22°17' E 114°10'5 3.3
2015-May-26 02:09N 22°16' E 114°05'5 8.3
2015-May-26 01:33N 22°17' E 114°10'1 1.4
2015-May-26 00:33N 22°18' E 114°09'6 4.9
2015-May-25 23:20N 22°15' E 114°04'2 2.0
2015-May-25 22:33N 22°17' E 114°04'3 0.4
2015-May-25 16:03N 22°16' E 114°02'815.1
2015-May-25 15:33N 22°17' E 114°10'0 0.0
2015-May-25 13:34N 22°17' E 114°10'8 5.4
2015-May-25 12:06N 22°16' E 114°01'814.3
2015-May-25 11:33N 22°17' E 114°10'0 0.0
2015-May-25 09:33N 22°17' E 114°10'8 5.2
2015-May-25 08:05N 22°16' E 114°01'814.9
2015-May-25 07:33N 22°17' E 114°10'8 5.3
2015-May-25 06:06N 22°16' E 114°01'814.3
2015-May-25 05:33N 22°17' E 114°10'7 6.6
2015-May-25 04:26N 22°16' E 114°02'5 2.6
2015-May-25 02:33N 22°17' E 114°07'4 3.6
2015-May-25 01:33N 22°17' E 114°10'0 0.0
2015-May-25 00:33N 22°17' E 114°10'0 0.0
2015-May-24 23:33N 22°17' E 114°10'6 5.7
2015-May-24 22:32N 22°17' E 114°04'2 0.4
2015-May-24 16:03N 22°16' E 114°02'714.6
2015-May-24 15:33N 22°17' E 114°10'8 5.2
2015-May-24 14:04N 22°16' E 114°02'814.9
2015-May-24 13:34N 22°17' E 114°10'7 4.9
2015-May-24 12:05N 22°16' E 114°02'713.9
2015-May-24 11:33N 22°17' E 114°10'7 4.7
2015-May-24 10:04N 22°16' E 114°02'713.6
2015-May-24 09:33N 22°17' E 114°10'0 0.0
2015-May-24 07:33N 22°17' E 114°10'0 0.0
2015-May-24 05:33N 22°17' E 114°10'8 6.8
2015-May-24 04:25N 22°16' E 114°01'5 2.5
2015-May-24 02:33N 22°17' E 114°06'3 2.7
2015-May-24 01:18N 22°20' E 114°09'0 0.0
2015-May-24 00:33N 22°20' E 114°09'2 2.4
2015-May-23 23:34N 22°17' E 114°10'9 1.3
2015-May-23 17:04N 22°16' E 114°00'917.2
2015-May-23 16:33N 22°17' E 114°10'8 5.7
2015-May-23 15:10N 22°16' E 114°01'812.6
2015-May-23 14:33N 22°17' E 114°10'3 3.0
2015-May-23 13:34N 22°17' E 114°06'4 1.9
2015-May-23 11:26N 22°16' E 114°02'6 7.2
2015-May-23 10:33N 22°18' E 114°09'6 6.4
2015-May-23 09:34N 22°16' E 114°02'6 6.4
2015-May-23 08:33N 22°18' E 114°09'4 3.8
2015-May-23 07:28N 22°17' E 114°04'4 4.2
2015-May-23 06:34N 22°18' E 114°09'3 3.0
2015-May-23 05:26N 22°17' E 114°05'6 7.1
2015-May-23 04:33N 22°18' E 114°12'1 0.8
2015-May-23 03:33N 22°19' E 114°12'0 0.0
2015-May-23 02:33N 22°19' E 114°12'3 2.8
2015-May-23 01:32N 22°20' E 114°09'8 5.4
2015-May-23 00:05N 22°16' E 114°02'814.5
2015-May-22 23:33N 22°17' E 114°10'0 0.0
2015-May-22 16:33N 22°17' E 114°10'7 5.1
2015-May-22 15:09N 22°16' E 114°02'712.2
2015-May-22 14:33N 22°17' E 114°10'3 2.9
2015-May-22 13:33N 22°17' E 114°06'5 2.2
2015-May-22 11:26N 22°16' E 114°02'7 7.5
2015-May-22 10:33N 22°18' E 114°09'5 5.1
2015-May-22 09:31N 22°16' E 114°03'5 5.5
2015-May-22 08:34N 22°18' E 114°09'6 5.5
2015-May-22 07:32N 22°16' E 114°03'9 9.2
2015-May-22 06:33N 22°19' E 114°12'0 0.1
2015-May-22 05:33N 22°19' E 114°12'0 0.0
2015-May-22 04:33N 22°19' E 114°12'0 0.0
2015-May-22 03:33N 22°19' E 114°12'0 0.0
2015-May-22 02:33N 22°19' E 114°12'0 0.0
2015-May-22 01:33N 22°19' E 114°12'10 6.8
2015-May-22 00:04N 22°16' E 114°01'815.1
2015-May-21 23:33N 22°17' E 114°10'0 0.0
2015-May-21 16:33N 22°17' E 114°10'6 4.5
2015-May-21 15:07N 22°16' E 114°03'611.3
2015-May-21 14:33N 22°17' E 114°10'3 3.1
2015-May-21 13:34N 22°17' E 114°06'3 1.3
2015-May-21 11:22N 22°17' E 114°03'5 5.8
2015-May-21 10:34N 22°18' E 114°08'4 3.3
2015-May-21 09:28N 22°17' E 114°05'4 3.9
2015-May-21 08:33N 22°17' E 114°08'5 4.4
2015-May-21 07:31N 22°17' E 114°03'8 8.3
2015-May-21 06:33N 22°19' E 114°12'0 0.4
2015-May-21 05:33N 22°19' E 114°12'0 0.2
2015-May-21 04:33N 22°19' E 114°12'0 0.0
2015-May-21 03:33N 22°19' E 114°12'0 0.0
2015-May-21 02:33N 22°19' E 114°12'3 2.9
2015-May-21 01:33N 22°20' E 114°09'8 5.1
2015-May-21 00:04N 22°16' E 114°02'714.7
2015-May-20 23:33N 22°17' E 114°10'0 0.0
2015-May-20 16:34N 22°17' E 114°09'7 5.0
2015-May-20 15:08N 22°16' E 114°02'712.2
2015-May-20 14:33N 22°17' E 114°10'3 3.1
2015-May-20 13:34N 22°17' E 114°06'2 0.7
2015-May-20 11:19N 22°17' E 114°05'4 4.6
2015-May-20 10:33N 22°18' E 114°08'6 5.8
2015-May-20 09:33N 22°16' E 114°02'6 6.3
2015-May-20 08:33N 22°18' E 114°09'7 6.5
2015-May-20 07:33N 22°16' E 114°02'9 9.2
2015-May-20 06:33N 22°18' E 114°12'1 0.8
2015-May-20 05:33N 22°19' E 114°12'0 0.0
2015-May-20 04:33N 22°19' E 114°12'  
Track history (hours):
 
Tides and Currents Weather Stations Pressure Air Temp Water Temp Dewpoint Dewpoint Depression Visibility Wind Speed Wind Dir Waves Ship Positions

First Ferry Vi

Last reported at 2015-May-30 03:34 UTC. Time now 2015-May-30 04:34 UTC.
Position N 22°17' E 114°10'.

Length 36 m; draft 1.8 m.

Type: Ship. MMSI: 477995028.

Date/timePositionNaut miles runAvg speedWind from/ knotsBaromVisibWave heightAir tempDewpointWater temp
2015-May-30 03:34N 22°17' E 114°10'6 4.4
2015-May-30 02:08N 22°15' E 114°04'610.1
2015-May-30 01:33N 22°17' E 114°10'2 2.5
2015-May-30 00:33N 22°19' E 114°09'7 6.0
2015-May-29 23:22N 22°15' E 114°03'2 3.1
2015-May-29 22:33N 22°17' E 114°05'5 0.7
2015-May-29 15:33N 22°17' E 114°10'7 6.4
2015-May-29 14:24N 22°16' E 114°02'910.9
2015-May-29 13:34N 22°18' E 114°12'2 1.9
2015-May-29 12:34N 22°17' E 114°10'4 4.2
2015-May-29 11:32N 22°16' E 114°05'1 0.7
2015-May-29 10:19N 22°17' E 114°04'7 9.4
2015-May-29 09:34N 22°19' E 114°12'0 0.4
2015-May-29 08:34N 22°19' E 114°12'0 0.0
2015-May-29 07:34N 22°19' E 114°12'0 0.0
2015-May-29 06:34N 22°19' E 114°12'2 1.5
2015-May-29 05:33N 22°18' E 114°11'7 5.1
2015-May-29 04:06N 22°15' E 114°04'610.1
2015-May-29 03:31N 22°17' E 114°10'4 2.8
2015-May-29 02:03N 22°16' E 114°05'5 9.2
2015-May-29 01:33N 22°17' E 114°10'2 1.6
2015-May-29 00:33N 22°19' E 114°09'7 5.9
2015-May-28 23:22N 22°15' E 114°03'2 2.3
2015-May-28 22:26N 22°16' E 114°01'8 1.2
2015-May-28 15:34N 22°17' E 114°10'7 6.6
2015-May-28 14:25N 22°16' E 114°02'7 8.6
2015-May-28 13:33N 22°17' E 114°10'0 0.1
2015-May-28 12:33N 22°17' E 114°10'4 3.9
2015-May-28 11:32N 22°16' E 114°05'3 2.5
2015-May-28 10:24N 22°16' E 114°02'810.0
2015-May-28 09:33N 22°18' E 114°11'1 1.2
2015-May-28 08:34N 22°19' E 114°12'0 0.0
2015-May-28 07:34N 22°19' E 114°12'0 0.0
2015-May-28 06:34N 22°19' E 114°12'2 1.5
2015-May-28 05:33N 22°18' E 114°11'1 0.7
2015-May-28 03:22N 22°17' E 114°10'4 2.9
2015-May-28 02:03N 22°17' E 114°06'4 8.2
2015-May-28 01:33N 22°17' E 114°10'2 2.2
2015-May-28 00:33N 22°19' E 114°09'6 5.2
2015-May-27 23:20N 22°15' E 114°04'2 2.0
2015-May-27 22:33N 22°17' E 114°04'3 0.5
2015-May-27 16:05N 22°16' E 114°01'815.7
2015-May-27 15:33N 22°17' E 114°10'7 6.2
2015-May-27 14:23N 22°16' E 114°02'910.8
2015-May-27 13:33N 22°18' E 114°11'2 1.6
2015-May-27 12:34N 22°17' E 114°10'4 4.0
2015-May-27 11:32N 22°16' E 114°05'1 0.6
2015-May-27 10:16N 22°17' E 114°06'4 5.3
2015-May-27 09:33N 22°19' E 114°09'0 0.3
2015-May-27 08:34N 22°20' E 114°09'0 0.0
2015-May-27 07:34N 22°20' E 114°09'0 0.0
2015-May-27 06:32N 22°20' E 114°09'2 2.2
2015-May-27 05:33N 22°18' E 114°09'0 0.2
2015-May-27 03:20N 22°17' E 114°10'5 4.3
2015-May-27 02:06N 22°16' E 114°04'610.7
2015-May-27 01:33N 22°17' E 114°10'2 1.7
2015-May-27 00:33N 22°19' E 114°09'5 4.4
2015-May-26 23:19N 22°16' E 114°04'1 1.4
2015-May-26 22:33N 22°17' E 114°04'5 0.7
2015-May-26 15:33N 22°17' E 114°10'8 6.6
2015-May-26 14:25N 22°16' E 114°02'7 8.8
2015-May-26 13:33N 22°17' E 114°10'0 0.0
2015-May-26 12:33N 22°17' E 114°10'5 4.7
2015-May-26 11:33N 22°16' E 114°05'2 1.5
2015-May-26 10:22N 22°16' E 114°03'6 7.8
2015-May-26 09:33N 22°19' E 114°09'1 1.2
2015-May-26 08:33N 22°20' E 114°09'0 0.0
2015-May-26 07:32N 22°20' E 114°09'0 0.0
2015-May-26 06:13N 22°20' E 114°09'2 2.4
2015-May-26 05:34N 22°18' E 114°09'5 3.4
2015-May-26 04:05N 22°16' E 114°04'5 9.0
2015-May-26 03:32N 22°17' E 114°10'5 3.3
2015-May-26 02:09N 22°16' E 114°05'5 8.3
2015-May-26 01:33N 22°17' E 114°10'1 1.4
2015-May-26 00:33N 22°18' E 114°09'6 4.9
2015-May-25 23:20N 22°15' E 114°04'2 2.0
2015-May-25 22:33N 22°17' E 114°04'3 0.4
2015-May-25 16:03N 22°16' E 114°02'815.1
2015-May-25 15:33N 22°17' E 114°10'0 0.0
2015-May-25 13:34N 22°17' E 114°10'8 5.4
2015-May-25 12:06N 22°16' E 114°01'814.3
2015-May-25 11:33N 22°17' E 114°10'0 0.0
2015-May-25 09:33N 22°17' E 114°10'8 5.2
2015-May-25 08:05N 22°16' E 114°01'814.9
2015-May-25 07:33N 22°17' E 114°10'8 5.3
2015-May-25 06:06N 22°16' E 114°01'814.3
2015-May-25 05:33N 22°17' E 114°10'7 6.6
2015-May-25 04:26N 22°16' E 114°02'5 2.6
2015-May-25 02:33N 22°17' E 114°07'4 3.6
2015-May-25 01:33N 22°17' E 114°10'0 0.0
2015-May-25 00:33N 22°17' E 114°10'0 0.0
2015-May-24 23:33N 22°17' E 114°10'6 5.7
2015-May-24 22:32N 22°17' E 114°04'2 0.4
2015-May-24 16:03N 22°16' E 114°02'714.6
2015-May-24 15:33N 22°17' E 114°10'8 5.2
2015-May-24 14:04N 22°16' E 114°02'814.9
2015-May-24 13:34N 22°17' E 114°10'7 4.9
2015-May-24 12:05N 22°16' E 114°02'713.9
2015-May-24 11:33N 22°17' E 114°10'7 4.7
2015-May-24 10:04N 22°16' E 114°02'713.6
2015-May-24 09:33N 22°17' E 114°10'0 0.0
2015-May-24 07:33N 22°17' E 114°10'0 0.0
2015-May-24 05:33N 22°17' E 114°10'8 6.8
2015-May-24 04:25N 22°16' E 114°01'5 2.5
2015-May-24 02:33N 22°17' E 114°06'3 2.7
2015-May-24 01:18N 22°20' E 114°09'0 0.0
2015-May-24 00:33N 22°20' E 114°09'2 2.4
2015-May-23 23:34N 22°17' E 114°10'9 1.3
2015-May-23 17:04N 22°16' E 114°00'917.2
2015-May-23 16:33N 22°17' E 114°10'8 5.7
2015-May-23 15:10N 22°16' E 114°01'812.6
2015-May-23 14:33N 22°17' E 114°10'3 3.0
2015-May-23 13:34N 22°17' E 114°06'4 1.9
2015-May-23 11:26N 22°16' E 114°02'6 7.2
2015-May-23 10:33N 22°18' E 114°09'6 6.4
2015-May-23 09:34N 22°16' E 114°02'6 6.4
2015-May-23 08:33N 22°18' E 114°09'4 3.8
2015-May-23 07:28N 22°17' E 114°04'4 4.2
2015-May-23 06:34N 22°18' E 114°09'3 3.0
2015-May-23 05:26N 22°17' E 114°05'6 7.1
2015-May-23 04:33N 22°18' E 114°12'1 0.8
2015-May-23 03:33N 22°19' E 114°12'0 0.0
2015-May-23 02:33N 22°19' E 114°12'3 2.8
2015-May-23 01:32N 22°20' E 114°09'8 5.4
2015-May-23 00:05N 22°16' E 114°02'814.5
2015-May-22 23:33N 22°17' E 114°10'0 0.0
2015-May-22 16:33N 22°17' E 114°10'7 5.1
2015-May-22 15:09N 22°16' E 114°02'712.2
2015-May-22 14:33N 22°17' E 114°10'3 2.9
2015-May-22 13:33N 22°17' E 114°06'5 2.2
2015-May-22 11:26N 22°16' E 114°02'7 7.5
2015-May-22 10:33N 22°18' E 114°09'5 5.1
2015-May-22 09:31N 22°16' E 114°03'5 5.5
2015-May-22 08:34N 22°18' E 114°09'6 5.5
2015-May-22 07:32N 22°16' E 114°03'9 9.2
2015-May-22 06:33N 22°19' E 114°12'0 0.1
2015-May-22 05:33N 22°19' E 114°12'0 0.0
2015-May-22 04:33N 22°19' E 114°12'0 0.0
2015-May-22 03:33N 22°19' E 114°12'0 0.0
2015-May-22 02:33N 22°19' E 114°12'0 0.0
2015-May-22 01:33N 22°19' E 114°12'10 6.8
2015-May-22 00:04N 22°16' E 114°01'815.1
2015-May-21 23:33N 22°17' E 114°10'0 0.0
2015-May-21 16:33N 22°17' E 114°10'6 4.5
2015-May-21 15:07N 22°16' E 114°03'611.3
2015-May-21 14:33N 22°17' E 114°10'3 3.1
2015-May-21 13:34N 22°17' E 114°06'3 1.3
2015-May-21 11:22N 22°17' E 114°03'5 5.8
2015-May-21 10:34N 22°18' E 114°08'4 3.3
2015-May-21 09:28N 22°17' E 114°05'4 3.9
2015-May-21 08:33N 22°17' E 114°08'5 4.4
2015-May-21 07:31N 22°17' E 114°03'8 8.3
2015-May-21 06:33N 22°19' E 114°12'0 0.4
2015-May-21 05:33N 22°19' E 114°12'0 0.2
2015-May-21 04:33N 22°19' E 114°12'0 0.0
2015-May-21 03:33N 22°19' E 114°12'0 0.0
2015-May-21 02:33N 22°19' E 114°12'3 2.9
2015-May-21 01:33N 22°20' E 114°09'8 5.1
2015-May-21 00:04N 22°16' E 114°02'714.7
2015-May-20 23:33N 22°17' E 114°10'0 0.0
2015-May-20 16:34N 22°17' E 114°09'7 5.0
2015-May-20 15:08N 22°16' E 114°02'712.2
2015-May-20 14:33N 22°17' E 114°10'3 3.1
2015-May-20 13:34N 22°17' E 114°06'2 0.7
2015-May-20 11:19N 22°17' E 114°05'4 4.6
2015-May-20 10:33N 22°18' E 114°08'6 5.8
2015-May-20 09:33N 22°16' E 114°02'6 6.3
2015-May-20 08:33N 22°18' E 114°09'7 6.5
2015-May-20 07:33N 22°16' E 114°02'9 9.2
2015-May-20 06:33N 22°18' E 114°12'1 0.8
2015-May-20 05:33N 22°19' E 114°12'0 0.0
2015-May-20 04:33N 22°19' E 114°12'  

Dump ship's entire track history